sensor_id;sensor_type;location;lat;lon;timestamp;P1;durP1;ratioP1;P2;durP2;ratioP2
7613;SDS011;3848;42.016;23.098;2022-07-30T00:00:58;14.90;;;10.90;;
7613;SDS011;3848;42.016;23.098;2022-07-30T00:03:25;17.33;;;11.17;;
7613;SDS011;3848;42.016;23.098;2022-07-30T00:05:54;12.30;;;11.00;;
7613;SDS011;3848;42.016;23.098;2022-07-30T00:08:21;14.23;;;11.30;;
7613;SDS011;3848;42.016;23.098;2022-07-30T00:10:48;16.83;;;11.33;;
7613;SDS011;3848;42.016;23.098;2022-07-30T00:13:16;16.03;;;11.63;;
7613;SDS011;3848;42.016;23.098;2022-07-30T00:15:43;16.20;;;11.80;;
7613;SDS011;3848;42.016;23.098;2022-07-30T00:18:10;15.63;;;10.60;;
7613;SDS011;3848;42.016;23.098;2022-07-30T00:20:38;14.10;;;10.63;;
7613;SDS011;3848;42.016;23.098;2022-07-30T00:23:06;13.10;;;10.40;;
7613;SDS011;3848;42.016;23.098;2022-07-30T00:25:33;11.67;;;10.03;;
7613;SDS011;3848;42.016;23.098;2022-07-30T00:28:00;17.27;;;11.23;;
7613;SDS011;3848;42.016;23.098;2022-07-30T00:30:27;14.30;;;12.00;;
7613;SDS011;3848;42.016;23.098;2022-07-30T00:32:54;15.80;;;11.60;;
7613;SDS011;3848;42.016;23.098;2022-07-30T00:35:21;20.47;;;11.90;;
7613;SDS011;3848;42.016;23.098;2022-07-30T00:37:48;15.77;;;10.70;;
7613;SDS011;3848;42.016;23.098;2022-07-30T00:40:16;12.03;;;10.03;;
7613;SDS011;3848;42.016;23.098;2022-07-30T00:42:44;14.57;;;10.20;;
7613;SDS011;3848;42.016;23.098;2022-07-30T00:45:12;12.00;;;10.10;;
7613;SDS011;3848;42.016;23.098;2022-07-30T00:47:40;15.17;;;10.47;;
7613;SDS011;3848;42.016;23.098;2022-07-30T00:50:07;13.63;;;10.90;;
7613;SDS011;3848;42.016;23.098;2022-07-30T00:52:36;15.70;;;11.13;;
7613;SDS011;3848;42.016;23.098;2022-07-30T00:55:05;15.27;;;11.07;;
7613;SDS011;3848;42.016;23.098;2022-07-30T00:57:35;14.47;;;11.30;;
7613;SDS011;3848;42.016;23.098;2022-07-30T01:00:02;17.10;;;10.90;;
7613;SDS011;3848;42.016;23.098;2022-07-30T01:02:30;13.80;;;10.50;;
7613;SDS011;3848;42.016;23.098;2022-07-30T01:04:57;14.90;;;10.70;;
7613;SDS011;3848;42.016;23.098;2022-07-30T01:07:23;12.87;;;10.33;;
7613;SDS011;3848;42.016;23.098;2022-07-30T01:09:50;13.93;;;11.03;;
7613;SDS011;3848;42.016;23.098;2022-07-30T01:12:19;19.83;;;10.57;;
7613;SDS011;3848;42.016;23.098;2022-07-30T01:14:49;16.67;;;11.00;;
7613;SDS011;3848;42.016;23.098;2022-07-30T01:17:17;14.00;;;11.10;;
7613;SDS011;3848;42.016;23.098;2022-07-30T01:19:44;15.70;;;10.80;;
7613;SDS011;3848;42.016;23.098;2022-07-30T01:22:15;13.13;;;10.57;;
7613;SDS011;3848;42.016;23.098;2022-07-30T01:24:51;14.80;;;10.67;;
7613;SDS011;3848;42.016;23.098;2022-07-30T01:27:25;14.27;;;11.20;;
7613;SDS011;3848;42.016;23.098;2022-07-30T01:29:56;16.73;;;10.63;;
7613;SDS011;3848;42.016;23.098;2022-07-30T01:32:27;13.37;;;10.70;;
7613;SDS011;3848;42.016;23.098;2022-07-30T01:34:56;16.33;;;10.30;;
7613;SDS011;3848;42.016;23.098;2022-07-30T01:37:26;12.50;;;10.73;;
7613;SDS011;3848;42.016;23.098;2022-07-30T01:39:54;14.97;;;10.03;;
7613;SDS011;3848;42.016;23.098;2022-07-30T01:42:22;11.50;;;10.20;;
7613;SDS011;3848;42.016;23.098;2022-07-30T01:44:52;11.57;;;10.20;;
7613;SDS011;3848;42.016;23.098;2022-07-30T01:47:19;12.97;;;10.27;;
7613;SDS011;3848;42.016;23.098;2022-07-30T01:49:49;13.33;;;11.23;;
7613;SDS011;3848;42.016;23.098;2022-07-30T01:52:19;15.83;;;10.57;;
7613;SDS011;3848;42.016;23.098;2022-07-30T01:54:47;16.00;;;10.13;;
7613;SDS011;3848;42.016;23.098;2022-07-30T01:57:18;11.63;;;9.90;;
7613;SDS011;3848;42.016;23.098;2022-07-30T01:59:48;11.57;;;10.37;;
7613;SDS011;3848;42.016;23.098;2022-07-30T02:02:17;15.47;;;11.00;;
7613;SDS011;3848;42.016;23.098;2022-07-30T02:04:44;14.23;;;9.83;;
7613;SDS011;3848;42.016;23.098;2022-07-30T02:07:13;13.83;;;11.47;;
7613;SDS011;3848;42.016;23.098;2022-07-30T02:09:47;17.20;;;11.57;;
7613;SDS011;3848;42.016;23.098;2022-07-30T02:12:19;13.67;;;10.03;;
7613;SDS011;3848;42.016;23.098;2022-07-30T02:14:58;16.70;;;11.40;;
7613;SDS011;3848;42.016;23.098;2022-07-30T02:17:35;13.67;;;10.53;;
7613;SDS011;3848;42.016;23.098;2022-07-30T02:20:05;12.57;;;9.90;;
7613;SDS011;3848;42.016;23.098;2022-07-30T02:22:37;12.90;;;11.27;;
7613;SDS011;3848;42.016;23.098;2022-07-30T02:25:06;11.57;;;10.30;;
7613;SDS011;3848;42.016;23.098;2022-07-30T02:27:36;16.77;;;10.87;;
7613;SDS011;3848;42.016;23.098;2022-07-30T02:30:08;12.37;;;10.60;;
7613;SDS011;3848;42.016;23.098;2022-07-30T02:32:37;14.83;;;10.83;;
7613;SDS011;3848;42.016;23.098;2022-07-30T02:35:08;13.53;;;10.70;;
7613;SDS011;3848;42.016;23.098;2022-07-30T02:37:39;12.83;;;10.10;;
7613;SDS011;3848;42.016;23.098;2022-07-30T02:40:09;12.77;;;9.83;;
7613;SDS011;3848;42.016;23.098;2022-07-30T02:42:40;11.77;;;9.83;;
7613;SDS011;3848;42.016;23.098;2022-07-30T02:45:10;11.97;;;10.47;;
7613;SDS011;3848;42.016;23.098;2022-07-30T02:47:38;22.60;;;10.90;;
7613;SDS011;3848;42.016;23.098;2022-07-30T02:50:07;13.30;;;10.77;;
7613;SDS011;3848;42.016;23.098;2022-07-30T02:52:36;16.17;;;11.67;;
7613;SDS011;3848;42.016;23.098;2022-07-30T02:55:05;13.30;;;10.63;;
7613;SDS011;3848;42.016;23.098;2022-07-30T02:57:34;13.23;;;9.83;;
7613;SDS011;3848;42.016;23.098;2022-07-30T03:00:03;14.27;;;9.77;;
7613;SDS011;3848;42.016;23.098;2022-07-30T03:02:32;13.93;;;9.63;;
7613;SDS011;3848;42.016;23.098;2022-07-30T03:05:00;13.60;;;9.83;;
7613;SDS011;3848;42.016;23.098;2022-07-30T03:07:29;14.43;;;9.50;;
7613;SDS011;3848;42.016;23.098;2022-07-30T03:09:57;22.23;;;11.10;;
7613;SDS011;3848;42.016;23.098;2022-07-30T03:12:25;17.30;;;10.63;;
7613;SDS011;3848;42.016;23.098;2022-07-30T03:14:55;18.60;;;10.73;;
7613;SDS011;3848;42.016;23.098;2022-07-30T03:17:24;14.20;;;10.40;;
7613;SDS011;3848;42.016;23.098;2022-07-30T03:19:54;13.73;;;11.03;;
7613;SDS011;3848;42.016;23.098;2022-07-30T03:22:26;14.90;;;9.50;;
7613;SDS011;3848;42.016;23.098;2022-07-30T03:24:54;12.60;;;10.03;;
7613;SDS011;3848;42.016;23.098;2022-07-30T03:27:23;13.07;;;10.90;;
7613;SDS011;3848;42.016;23.098;2022-07-30T03:29:51;18.60;;;10.83;;
7613;SDS011;3848;42.016;23.098;2022-07-30T03:32:19;16.83;;;11.37;;
7613;SDS011;3848;42.016;23.098;2022-07-30T03:34:47;11.77;;;9.47;;
7613;SDS011;3848;42.016;23.098;2022-07-30T03:37:15;25.10;;;9.87;;
7613;SDS011;3848;42.016;23.098;2022-07-30T03:39:43;11.90;;;9.80;;
7613;SDS011;3848;42.016;23.098;2022-07-30T03:42:10;16.63;;;9.53;;
7613;SDS011;3848;42.016;23.098;2022-07-30T03:44:37;10.53;;;9.37;;
7613;SDS011;3848;42.016;23.098;2022-07-30T03:47:05;10.50;;;9.13;;
7613;SDS011;3848;42.016;23.098;2022-07-30T03:49:34;13.30;;;9.43;;
7613;SDS011;3848;42.016;23.098;2022-07-30T03:52:01;18.20;;;9.50;;
7613;SDS011;3848;42.016;23.098;2022-07-30T03:54:31;13.53;;;9.33;;
7613;SDS011;3848;42.016;23.098;2022-07-30T03:56:58;11.43;;;8.60;;
7613;SDS011;3848;42.016;23.098;2022-07-30T03:59:26;15.60;;;9.43;;
7613;SDS011;3848;42.016;23.098;2022-07-30T04:01:53;13.27;;;10.57;;
7613;SDS011;3848;42.016;23.098;2022-07-30T04:04:20;12.07;;;9.93;;
7613;SDS011;3848;42.016;23.098;2022-07-30T04:06:47;11.63;;;9.60;;
7613;SDS011;3848;42.016;23.098;2022-07-30T04:09:13;14.33;;;10.33;;
7613;SDS011;3848;42.016;23.098;2022-07-30T04:11:42;15.87;;;11.20;;
7613;SDS011;3848;42.016;23.098;2022-07-30T04:14:09;13.87;;;11.67;;
7613;SDS011;3848;42.016;23.098;2022-07-30T04:16:36;19.67;;;11.77;;
7613;SDS011;3848;42.016;23.098;2022-07-30T04:19:09;22.63;;;11.27;;
7613;SDS011;3848;42.016;23.098;2022-07-30T04:21:41;11.23;;;10.10;;
7613;SDS011;3848;42.016;23.098;2022-07-30T04:24:11;15.00;;;11.07;;
7613;SDS011;3848;42.016;23.098;2022-07-30T04:26:42;15.47;;;11.10;;
7613;SDS011;3848;42.016;23.098;2022-07-30T04:29:10;13.43;;;10.37;;
7613;SDS011;3848;42.016;23.098;2022-07-30T04:31:37;19.27;;;11.03;;
7613;SDS011;3848;42.016;23.098;2022-07-30T04:34:05;17.23;;;10.90;;
7613;SDS011;3848;42.016;23.098;2022-07-30T04:36:32;21.00;;;11.53;;
7613;SDS011;3848;42.016;23.098;2022-07-30T04:38:59;19.40;;;11.40;;
7613;SDS011;3848;42.016;23.098;2022-07-30T04:41:27;16.80;;;11.07;;
7613;SDS011;3848;42.016;23.098;2022-07-30T04:43:55;15.37;;;11.10;;
7613;SDS011;3848;42.016;23.098;2022-07-30T04:46:22;17.87;;;10.30;;
7613;SDS011;3848;42.016;23.098;2022-07-30T04:48:48;13.87;;;11.90;;
7613;SDS011;3848;42.016;23.098;2022-07-30T04:51:16;21.43;;;12.03;;
7613;SDS011;3848;42.016;23.098;2022-07-30T04:53:48;15.93;;;11.80;;
7613;SDS011;3848;42.016;23.098;2022-07-30T04:56:16;20.50;;;13.07;;
7613;SDS011;3848;42.016;23.098;2022-07-30T04:58:45;16.87;;;12.50;;
7613;SDS011;3848;42.016;23.098;2022-07-30T05:01:15;24.17;;;13.77;;
7613;SDS011;3848;42.016;23.098;2022-07-30T05:03:45;17.83;;;13.07;;
7613;SDS011;3848;42.016;23.098;2022-07-30T05:06:13;23.77;;;13.53;;
7613;SDS011;3848;42.016;23.098;2022-07-30T05:08:42;22.00;;;13.70;;
7613;SDS011;3848;42.016;23.098;2022-07-30T05:11:10;18.93;;;13.40;;
7613;SDS011;3848;42.016;23.098;2022-07-30T05:13:39;20.90;;;13.03;;
7613;SDS011;3848;42.016;23.098;2022-07-30T05:16:06;17.63;;;12.20;;
7613;SDS011;3848;42.016;23.098;2022-07-30T05:18:35;17.33;;;12.57;;
7613;SDS011;3848;42.016;23.098;2022-07-30T05:21:02;21.10;;;12.43;;
7613;SDS011;3848;42.016;23.098;2022-07-30T05:23:29;15.70;;;12.53;;
7613;SDS011;3848;42.016;23.098;2022-07-30T05:25:56;19.77;;;13.23;;
7613;SDS011;3848;42.016;23.098;2022-07-30T05:28:23;21.60;;;13.67;;
7613;SDS011;3848;42.016;23.098;2022-07-30T05:30:50;17.23;;;12.53;;
7613;SDS011;3848;42.016;23.098;2022-07-30T05:33:18;16.93;;;13.57;;
7613;SDS011;3848;42.016;23.098;2022-07-30T05:35:46;18.17;;;14.07;;
7613;SDS011;3848;42.016;23.098;2022-07-30T05:38:14;21.13;;;14.73;;
7613;SDS011;3848;42.016;23.098;2022-07-30T05:40:41;22.63;;;14.53;;
7613;SDS011;3848;42.016;23.098;2022-07-30T05:43:08;19.30;;;13.70;;
7613;SDS011;3848;42.016;23.098;2022-07-30T05:45:35;25.97;;;14.97;;
7613;SDS011;3848;42.016;23.098;2022-07-30T05:48:03;27.00;;;14.60;;
7613;SDS011;3848;42.016;23.098;2022-07-30T05:50:30;22.37;;;15.20;;
7613;SDS011;3848;42.016;23.098;2022-07-30T05:52:58;22.97;;;15.33;;
7613;SDS011;3848;42.016;23.098;2022-07-30T05:55:25;19.67;;;14.33;;
7613;SDS011;3848;42.016;23.098;2022-07-30T05:57:52;20.43;;;14.53;;
7613;SDS011;3848;42.016;23.098;2022-07-30T06:00:19;21.67;;;14.13;;
7613;SDS011;3848;42.016;23.098;2022-07-30T06:02:46;18.50;;;13.17;;
7613;SDS011;3848;42.016;23.098;2022-07-30T06:05:13;24.60;;;14.07;;
7613;SDS011;3848;42.016;23.098;2022-07-30T06:07:39;17.07;;;14.37;;
7613;SDS011;3848;42.016;23.098;2022-07-30T06:10:08;19.53;;;13.90;;
7613;SDS011;3848;42.016;23.098;2022-07-30T06:12:35;20.10;;;13.93;;
7613;SDS011;3848;42.016;23.098;2022-07-30T06:15:02;21.23;;;13.57;;
7613;SDS011;3848;42.016;23.098;2022-07-30T06:17:29;21.90;;;13.47;;
7613;SDS011;3848;42.016;23.098;2022-07-30T06:19:58;17.43;;;13.47;;
7613;SDS011;3848;42.016;23.098;2022-07-30T06:22:25;16.53;;;12.40;;
7613;SDS011;3848;42.016;23.098;2022-07-30T06:24:52;17.03;;;13.23;;
7613;SDS011;3848;42.016;23.098;2022-07-30T06:27:20;20.63;;;12.87;;
7613;SDS011;3848;42.016;23.098;2022-07-30T06:29:47;21.83;;;13.77;;
7613;SDS011;3848;42.016;23.098;2022-07-30T06:32:14;20.10;;;12.37;;
7613;SDS011;3848;42.016;23.098;2022-07-30T06:34:41;18.73;;;12.57;;
7613;SDS011;3848;42.016;23.098;2022-07-30T06:37:08;20.40;;;12.70;;
7613;SDS011;3848;42.016;23.098;2022-07-30T06:39:35;31.60;;;20.20;;
7613;SDS011;3848;42.016;23.098;2022-07-30T06:42:02;24.13;;;17.87;;
7613;SDS011;3848;42.016;23.098;2022-07-30T06:44:31;15.77;;;12.30;;
7613;SDS011;3848;42.016;23.098;2022-07-30T06:46:57;19.70;;;12.70;;
7613;SDS011;3848;42.016;23.098;2022-07-30T06:49:24;20.27;;;11.87;;
7613;SDS011;3848;42.016;23.098;2022-07-30T06:51:51;19.53;;;12.47;;
7613;SDS011;3848;42.016;23.098;2022-07-30T06:54:18;20.00;;;12.23;;
7613;SDS011;3848;42.016;23.098;2022-07-30T06:56:45;23.10;;;12.40;;
7613;SDS011;3848;42.016;23.098;2022-07-30T06:59:12;20.10;;;12.63;;
7613;SDS011;3848;42.016;23.098;2022-07-30T07:01:40;21.13;;;12.27;;
7613;SDS011;3848;42.016;23.098;2022-07-30T07:04:07;23.50;;;11.57;;
7613;SDS011;3848;42.016;23.098;2022-07-30T07:06:34;18.83;;;12.37;;
7613;SDS011;3848;42.016;23.098;2022-07-30T07:09:01;22.37;;;12.50;;
7613;SDS011;3848;42.016;23.098;2022-07-30T07:11:28;19.50;;;12.23;;
7613;SDS011;3848;42.016;23.098;2022-07-30T07:14:13;15.37;;;12.00;;
7613;SDS011;3848;42.016;23.098;2022-07-30T07:16:41;15.90;;;11.73;;
7613;SDS011;3848;42.016;23.098;2022-07-30T07:19:08;22.50;;;13.07;;
7613;SDS011;3848;42.016;23.098;2022-07-30T07:21:35;16.73;;;12.17;;
7613;SDS011;3848;42.016;23.098;2022-07-30T07:24:02;21.30;;;13.10;;
7613;SDS011;3848;42.016;23.098;2022-07-30T07:26:29;19.70;;;11.50;;
7613;SDS011;3848;42.016;23.098;2022-07-30T07:28:56;16.90;;;11.73;;
7613;SDS011;3848;42.016;23.098;2022-07-30T07:31:23;23.80;;;12.60;;
7613;SDS011;3848;42.016;23.098;2022-07-30T07:33:51;19.93;;;12.30;;
7613;SDS011;3848;42.016;23.098;2022-07-30T07:36:19;16.67;;;12.17;;
7613;SDS011;3848;42.016;23.098;2022-07-30T07:38:46;23.20;;;12.87;;
7613;SDS011;3848;42.016;23.098;2022-07-30T07:41:13;15.83;;;11.50;;
7613;SDS011;3848;42.016;23.098;2022-07-30T07:43:40;17.47;;;12.63;;
7613;SDS011;3848;42.016;23.098;2022-07-30T07:46:06;16.40;;;11.60;;
7613;SDS011;3848;42.016;23.098;2022-07-30T07:48:33;13.40;;;11.50;;
7613;SDS011;3848;42.016;23.098;2022-07-30T07:51:02;18.20;;;13.00;;
7613;SDS011;3848;42.016;23.098;2022-07-30T07:53:29;17.63;;;11.73;;
7613;SDS011;3848;42.016;23.098;2022-07-30T07:55:56;15.63;;;11.83;;
7613;SDS011;3848;42.016;23.098;2022-07-30T07:58:23;15.93;;;10.93;;
7613;SDS011;3848;42.016;23.098;2022-07-30T08:00:51;13.53;;;11.17;;
7613;SDS011;3848;42.016;23.098;2022-07-30T08:03:18;14.67;;;10.17;;
7613;SDS011;3848;42.016;23.098;2022-07-30T08:05:44;16.73;;;10.53;;
7613;SDS011;3848;42.016;23.098;2022-07-30T08:08:13;12.53;;;10.10;;
7613;SDS011;3848;42.016;23.098;2022-07-30T08:10:40;13.20;;;10.57;;
7613;SDS011;3848;42.016;23.098;2022-07-30T08:13:06;16.63;;;11.10;;
7613;SDS011;3848;42.016;23.098;2022-07-30T08:15:33;25.60;;;11.37;;
7613;SDS011;3848;42.016;23.098;2022-07-30T08:18:00;13.80;;;10.60;;
7613;SDS011;3848;42.016;23.098;2022-07-30T08:20:27;17.80;;;11.27;;
7613;SDS011;3848;42.016;23.098;2022-07-30T08:22:54;14.40;;;11.20;;
7613;SDS011;3848;42.016;23.098;2022-07-30T08:25:23;14.63;;;10.30;;
7613;SDS011;3848;42.016;23.098;2022-07-30T08:27:49;14.67;;;10.50;;
7613;SDS011;3848;42.016;23.098;2022-07-30T08:30:16;16.07;;;10.70;;
7613;SDS011;3848;42.016;23.098;2022-07-30T08:32:43;16.23;;;10.13;;
7613;SDS011;3848;42.016;23.098;2022-07-30T08:35:10;15.90;;;9.90;;
7613;SDS011;3848;42.016;23.098;2022-07-30T08:37:37;12.17;;;10.10;;
7613;SDS011;3848;42.016;23.098;2022-07-30T08:40:05;16.30;;;11.13;;
7613;SDS011;3848;42.016;23.098;2022-07-30T08:42:34;15.13;;;9.73;;
7613;SDS011;3848;42.016;23.098;2022-07-30T08:45:01;16.60;;;10.40;;
7613;SDS011;3848;42.016;23.098;2022-07-30T08:47:30;15.73;;;10.27;;
7613;SDS011;3848;42.016;23.098;2022-07-30T08:49:58;20.03;;;11.27;;
7613;SDS011;3848;42.016;23.098;2022-07-30T08:52:29;17.50;;;9.97;;
7613;SDS011;3848;42.016;23.098;2022-07-30T08:54:58;14.87;;;10.13;;
7613;SDS011;3848;42.016;23.098;2022-07-30T08:57:24;13.00;;;9.70;;
7613;SDS011;3848;42.016;23.098;2022-07-30T08:59:55;14.97;;;10.23;;
7613;SDS011;3848;42.016;23.098;2022-07-30T09:02:23;10.87;;;9.60;;
7613;SDS011;3848;42.016;23.098;2022-07-30T09:04:50;11.23;;;9.13;;
7613;SDS011;3848;42.016;23.098;2022-07-30T09:07:17;16.47;;;9.07;;
7613;SDS011;3848;42.016;23.098;2022-07-30T09:09:44;14.10;;;9.00;;
7613;SDS011;3848;42.016;23.098;2022-07-30T09:15:02;13.90;;;9.17;;
7613;SDS011;3848;42.016;23.098;2022-07-30T09:17:44;9.70;;;8.43;;
7613;SDS011;3848;42.016;23.098;2022-07-30T09:20:16;9.70;;;8.40;;
7613;SDS011;3848;42.016;23.098;2022-07-30T09:22:44;14.37;;;8.40;;
7613;SDS011;3848;42.016;23.098;2022-07-30T09:25:12;17.80;;;11.63;;
7613;SDS011;3848;42.016;23.098;2022-07-30T09:27:45;12.73;;;9.30;;
7613;SDS011;3848;42.016;23.098;2022-07-30T09:30:15;14.40;;;11.30;;
7613;SDS011;3848;42.016;23.098;2022-07-30T09:32:45;17.80;;;9.13;;
7613;SDS011;3848;42.016;23.098;2022-07-30T09:35:14;9.30;;;7.57;;
7613;SDS011;3848;42.016;23.098;2022-07-30T09:37:42;12.17;;;9.07;;
7613;SDS011;3848;42.016;23.098;2022-07-30T09:40:10;15.63;;;8.50;;
7613;SDS011;3848;42.016;23.098;2022-07-30T09:42:38;12.17;;;7.90;;
7613;SDS011;3848;42.016;23.098;2022-07-30T09:45:05;10.07;;;7.93;;
7613;SDS011;3848;42.016;23.098;2022-07-30T09:47:35;9.38;;;7.93;;
7613;SDS011;3848;42.016;23.098;2022-07-30T09:50:04;9.65;;;7.03;;
7613;SDS011;3848;42.016;23.098;2022-07-30T09:52:32;13.07;;;7.53;;
7613;SDS011;3848;42.016;23.098;2022-07-30T09:54:59;12.80;;;7.15;;
7613;SDS011;3848;42.016;23.098;2022-07-30T09:57:26;9.13;;;7.00;;
7613;SDS011;3848;42.016;23.098;2022-07-30T09:59:54;8.25;;;6.72;;
7613;SDS011;3848;42.016;23.098;2022-07-30T10:02:27;8.27;;;6.72;;
7613;SDS011;3848;42.016;23.098;2022-07-30T10:04:58;8.18;;;7.38;;
7613;SDS011;3848;42.016;23.098;2022-07-30T10:07:34;11.38;;;7.25;;
7613;SDS011;3848;42.016;23.098;2022-07-30T10:10:01;7.65;;;6.85;;
7613;SDS011;3848;42.016;23.098;2022-07-30T10:12:28;10.45;;;7.18;;
7613;SDS011;3848;42.016;23.098;2022-07-30T10:14:58;7.82;;;7.03;;
7613;SDS011;3848;42.016;23.098;2022-07-30T10:17:27;9.98;;;7.50;;
7613;SDS011;3848;42.016;23.098;2022-07-30T10:19:58;9.13;;;7.05;;
7613;SDS011;3848;42.016;23.098;2022-07-30T10:22:26;10.20;;;7.85;;
7613;SDS011;3848;42.016;23.098;2022-07-30T10:24:53;10.50;;;7.38;;
7613;SDS011;3848;42.016;23.098;2022-07-30T10:27:21;11.25;;;7.43;;
7613;SDS011;3848;42.016;23.098;2022-07-30T10:29:48;8.00;;;7.00;;
7613;SDS011;3848;42.016;23.098;2022-07-30T10:32:16;8.32;;;7.55;;
7613;SDS011;3848;42.016;23.098;2022-07-30T10:34:43;8.05;;;7.32;;
7613;SDS011;3848;42.016;23.098;2022-07-30T10:37:11;9.30;;;6.95;;
7613;SDS011;3848;42.016;23.098;2022-07-30T10:39:42;7.60;;;6.97;;
7613;SDS011;3848;42.016;23.098;2022-07-30T10:42:17;11.05;;;7.25;;
7613;SDS011;3848;42.016;23.098;2022-07-30T10:45:00;9.75;;;7.93;;
7613;SDS011;3848;42.016;23.098;2022-07-30T10:47:37;8.73;;;7.25;;
7613;SDS011;3848;42.016;23.098;2022-07-30T10:50:05;9.30;;;8.10;;
7613;SDS011;3848;42.016;23.098;2022-07-30T10:55:22;8.50;;;7.38;;
7613;SDS011;3848;42.016;23.098;2022-07-30T10:57:57;9.35;;;7.05;;
7613;SDS011;3848;42.016;23.098;2022-07-30T11:00:28;10.80;;;7.22;;
7613;SDS011;3848;42.016;23.098;2022-07-30T11:03:15;10.63;;;7.78;;
7613;SDS011;3848;42.016;23.098;2022-07-30T11:05:44;8.73;;;7.25;;
7613;SDS011;3848;42.016;23.098;2022-07-30T11:08:30;7.75;;;7.05;;
7613;SDS011;3848;42.016;23.098;2022-07-30T11:11:00;9.68;;;6.70;;
7613;SDS011;3848;42.016;23.098;2022-07-30T11:16:17;7.05;;;6.45;;
7613;SDS011;3848;42.016;23.098;2022-07-30T11:19:01;6.88;;;6.18;;
7613;SDS011;3848;42.016;23.098;2022-07-30T11:21:33;6.93;;;6.25;;
7613;SDS011;3848;42.016;23.098;2022-07-30T11:24:02;8.70;;;6.70;;
7613;SDS011;3848;42.016;23.098;2022-07-30T11:26:48;6.93;;;6.25;;
7613;SDS011;3848;42.016;23.098;2022-07-30T11:29:31;8.00;;;6.18;;
7613;SDS011;3848;42.016;23.098;2022-07-30T11:32:28;7.72;;;6.63;;
7613;SDS011;3848;42.016;23.098;2022-07-30T11:40:37;8.63;;;6.90;;
7613;SDS011;3848;42.016;23.098;2022-07-30T11:43:25;6.95;;;6.22;;
7613;SDS011;3848;42.016;23.098;2022-07-30T11:46:03;9.25;;;6.07;;
7613;SDS011;3848;42.016;23.098;2022-07-30T11:48:32;7.43;;;6.18;;
7613;SDS011;3848;42.016;23.098;2022-07-30T11:51:00;7.38;;;6.68;;
7613;SDS011;3848;42.016;23.098;2022-07-30T11:53:27;6.43;;;5.75;;
7613;SDS011;3848;42.016;23.098;2022-07-30T11:55:56;6.03;;;5.43;;
7613;SDS011;3848;42.016;23.098;2022-07-30T11:58:27;6.70;;;5.70;;
7613;SDS011;3848;42.016;23.098;2022-07-30T12:00:56;8.57;;;6.93;;
7613;SDS011;3848;42.016;23.098;2022-07-30T12:03:26;6.15;;;5.65;;
7613;SDS011;3848;42.016;23.098;2022-07-30T12:05:55;7.65;;;6.38;;
7613;SDS011;3848;42.016;23.098;2022-07-30T12:08:28;8.27;;;6.18;;
7613;SDS011;3848;42.016;23.098;2022-07-30T12:10:57;11.23;;;5.95;;
7613;SDS011;3848;42.016;23.098;2022-07-30T12:13:25;9.40;;;6.15;;
7613;SDS011;3848;42.016;23.098;2022-07-30T12:15:52;8.90;;;5.78;;
7613;SDS011;3848;42.016;23.098;2022-07-30T12:18:22;7.45;;;5.28;;
7613;SDS011;3848;42.016;23.098;2022-07-30T12:20:54;6.25;;;5.65;;
7613;SDS011;3848;42.016;23.098;2022-07-30T12:23:22;7.68;;;5.63;;
7613;SDS011;3848;42.016;23.098;2022-07-30T12:25:50;7.35;;;6.38;;
7613;SDS011;3848;42.016;23.098;2022-07-30T12:28:22;6.95;;;6.10;;
7613;SDS011;3848;42.016;23.098;2022-07-30T12:30:50;7.18;;;6.00;;
7613;SDS011;3848;42.016;23.098;2022-07-30T12:33:17;8.73;;;5.53;;
7613;SDS011;3848;42.016;23.098;2022-07-30T12:35:45;7.40;;;5.32;;
7613;SDS011;3848;42.016;23.098;2022-07-30T12:38:13;8.80;;;6.30;;
7613;SDS011;3848;42.016;23.098;2022-07-30T12:40:54;6.63;;;5.63;;
7613;SDS011;3848;42.016;23.098;2022-07-30T12:43:43;7.57;;;5.68;;
7613;SDS011;3848;42.016;23.098;2022-07-30T12:46:12;5.75;;;5.22;;
7613;SDS011;3848;42.016;23.098;2022-07-30T12:48:51;9.15;;;5.53;;
7613;SDS011;3848;42.016;23.098;2022-07-30T12:51:21;6.13;;;5.53;;
7613;SDS011;3848;42.016;23.098;2022-07-30T12:53:48;6.63;;;5.68;;
7613;SDS011;3848;42.016;23.098;2022-07-30T12:56:18;10.25;;;5.78;;
7613;SDS011;3848;42.016;23.098;2022-07-30T12:58:47;8.68;;;5.88;;
7613;SDS011;3848;42.016;23.098;2022-07-30T13:01:14;6.97;;;6.28;;
7613;SDS011;3848;42.016;23.098;2022-07-30T13:03:41;9.77;;;6.22;;
7613;SDS011;3848;42.016;23.098;2022-07-30T13:06:16;7.05;;;5.82;;
7613;SDS011;3848;42.016;23.098;2022-07-30T13:08:48;6.88;;;5.38;;
7613;SDS011;3848;42.016;23.098;2022-07-30T13:11:17;8.38;;;6.25;;
7613;SDS011;3848;42.016;23.098;2022-07-30T13:13:45;7.38;;;6.07;;
7613;SDS011;3848;42.016;23.098;2022-07-30T13:16:14;7.10;;;6.43;;
7613;SDS011;3848;42.016;23.098;2022-07-30T13:18:41;9.63;;;6.15;;
7613;SDS011;3848;42.016;23.098;2022-07-30T13:21:08;7.00;;;6.30;;
7613;SDS011;3848;42.016;23.098;2022-07-30T13:23:36;7.35;;;5.57;;
7613;SDS011;3848;42.016;23.098;2022-07-30T13:26:03;9.00;;;5.85;;
7613;SDS011;3848;42.016;23.098;2022-07-30T13:28:31;8.57;;;6.00;;
7613;SDS011;3848;42.016;23.098;2022-07-30T13:31:00;7.20;;;6.13;;
7613;SDS011;3848;42.016;23.098;2022-07-30T13:33:27;8.18;;;6.25;;
7613;SDS011;3848;42.016;23.098;2022-07-30T13:35:54;8.70;;;5.80;;
7613;SDS011;3848;42.016;23.098;2022-07-30T13:38:21;6.43;;;5.82;;
7613;SDS011;3848;42.016;23.098;2022-07-30T13:40:48;6.35;;;5.85;;
7613;SDS011;3848;42.016;23.098;2022-07-30T13:43:15;7.78;;;5.90;;
7613;SDS011;3848;42.016;23.098;2022-07-30T13:45:42;6.80;;;6.10;;
7613;SDS011;3848;42.016;23.098;2022-07-30T13:48:11;6.07;;;5.57;;
7613;SDS011;3848;42.016;23.098;2022-07-30T13:50:38;6.63;;;5.72;;
7613;SDS011;3848;42.016;23.098;2022-07-30T13:53:05;8.38;;;6.05;;
7613;SDS011;3848;42.016;23.098;2022-07-30T13:55:32;7.53;;;6.32;;
7613;SDS011;3848;42.016;23.098;2022-07-30T13:58:00;7.85;;;6.25;;
7613;SDS011;3848;42.016;23.098;2022-07-30T14:00:27;6.50;;;5.90;;
7613;SDS011;3848;42.016;23.098;2022-07-30T14:02:57;6.18;;;5.65;;
7613;SDS011;3848;42.016;23.098;2022-07-30T14:05:26;7.15;;;6.35;;
7613;SDS011;3848;42.016;23.098;2022-07-30T14:07:52;9.32;;;6.68;;
7613;SDS011;3848;42.016;23.098;2022-07-30T14:10:20;8.98;;;6.32;;
7613;SDS011;3848;42.016;23.098;2022-07-30T14:12:47;9.50;;;6.82;;
7613;SDS011;3848;42.016;23.098;2022-07-30T14:15:14;8.15;;;7.00;;
7613;SDS011;3848;42.016;23.098;2022-07-30T14:17:41;8.57;;;6.80;;
7613;SDS011;3848;42.016;23.098;2022-07-30T14:20:08;14.98;;;6.97;;
7613;SDS011;3848;42.016;23.098;2022-07-30T14:22:37;7.30;;;6.60;;
7613;SDS011;3848;42.016;23.098;2022-07-30T14:25:06;7.78;;;6.97;;
7613;SDS011;3848;42.016;23.098;2022-07-30T14:27:33;8.73;;;7.10;;
7613;SDS011;3848;42.016;23.098;2022-07-30T14:30:00;7.72;;;6.78;;
7613;SDS011;3848;42.016;23.098;2022-07-30T14:32:27;8.50;;;6.93;;
7613;SDS011;3848;42.016;23.098;2022-07-30T14:34:54;9.43;;;7.72;;
7613;SDS011;3848;42.016;23.098;2022-07-30T14:37:21;8.02;;;6.72;;
7613;SDS011;3848;42.016;23.098;2022-07-30T14:39:49;8.90;;;7.68;;
7613;SDS011;3848;42.016;23.098;2022-07-30T14:42:16;9.57;;;7.38;;
7613;SDS011;3848;42.016;23.098;2022-07-30T14:44:44;7.53;;;6.78;;
7613;SDS011;3848;42.016;23.098;2022-07-30T14:47:11;9.60;;;7.18;;
7613;SDS011;3848;42.016;23.098;2022-07-30T14:49:39;9.70;;;7.93;;
7613;SDS011;3848;42.016;23.098;2022-07-30T14:52:05;8.20;;;7.22;;
7613;SDS011;3848;42.016;23.098;2022-07-30T14:54:32;8.70;;;7.68;;
7613;SDS011;3848;42.016;23.098;2022-07-30T14:57:01;10.15;;;8.30;;
7613;SDS011;3848;42.016;23.098;2022-07-30T14:59:28;10.85;;;7.45;;
7613;SDS011;3848;42.016;23.098;2022-07-30T15:01:55;7.85;;;7.05;;
7613;SDS011;3848;42.016;23.098;2022-07-30T15:04:22;8.25;;;7.45;;
7613;SDS011;3848;42.016;23.098;2022-07-30T15:06:49;8.30;;;7.50;;
7613;SDS011;3848;42.016;23.098;2022-07-30T15:09:15;11.73;;;7.68;;